sensor_id;sensor_type;location;lat;lon;timestamp;P1;durP1;ratioP1;P2;durP2;ratioP2
18695;SDS011;22617;43.690;27.956;2023-07-20T00:02:50;6.28;;;5.47;;
18695;SDS011;22617;43.690;27.956;2023-07-20T00:07:53;9.93;;;5.78;;
18695;SDS011;22617;43.690;27.956;2023-07-20T00:13:00;10.30;;;6.82;;
18695;SDS011;22617;43.690;27.956;2023-07-20T00:18:03;9.23;;;5.90;;
18695;SDS011;22617;43.690;27.956;2023-07-20T00:23:07;8.18;;;6.40;;
18695;SDS011;22617;43.690;27.956;2023-07-20T00:28:12;9.77;;;5.97;;
18695;SDS011;22617;43.690;27.956;2023-07-20T00:33:16;7.40;;;5.10;;
18695;SDS011;22617;43.690;27.956;2023-07-20T00:38:20;8.02;;;6.10;;
18695;SDS011;22617;43.690;27.956;2023-07-20T00:43:26;9.32;;;5.90;;
18695;SDS011;22617;43.690;27.956;2023-07-20T00:48:29;18.15;;;7.20;;
18695;SDS011;22617;43.690;27.956;2023-07-20T00:53:33;11.10;;;6.20;;
18695;SDS011;22617;43.690;27.956;2023-07-20T00:58:39;11.52;;;6.32;;
18695;SDS011;22617;43.690;27.956;2023-07-20T01:03:43;8.43;;;5.90;;
18695;SDS011;22617;43.690;27.956;2023-07-20T01:08:47;10.32;;;5.97;;
18695;SDS011;22617;43.690;27.956;2023-07-20T01:14:01;8.05;;;6.07;;
18695;SDS011;22617;43.690;27.956;2023-07-20T01:19:06;9.73;;;5.93;;
18695;SDS011;22617;43.690;27.956;2023-07-20T01:24:31;7.55;;;5.72;;
18695;SDS011;22617;43.690;27.956;2023-07-20T01:29:47;9.43;;;5.95;;
18695;SDS011;22617;43.690;27.956;2023-07-20T01:35:07;6.63;;;5.45;;
18695;SDS011;22617;43.690;27.956;2023-07-20T01:40:12;6.57;;;5.88;;
18695;SDS011;22617;43.690;27.956;2023-07-20T01:45:17;10.40;;;6.03;;
18695;SDS011;22617;43.690;27.956;2023-07-20T01:50:22;8.85;;;6.13;;
18695;SDS011;22617;43.690;27.956;2023-07-20T01:55:26;9.40;;;6.45;;
18695;SDS011;22617;43.690;27.956;2023-07-20T02:00:30;13.30;;;6.72;;
18695;SDS011;22617;43.690;27.956;2023-07-20T02:05:35;9.13;;;6.60;;
18695;SDS011;22617;43.690;27.956;2023-07-20T02:10:38;12.25;;;6.72;;
18695;SDS011;22617;43.690;27.956;2023-07-20T02:15:42;9.13;;;6.30;;
18695;SDS011;22617;43.690;27.956;2023-07-20T02:20:48;11.30;;;6.72;;
18695;SDS011;22617;43.690;27.956;2023-07-20T02:25:51;10.80;;;6.57;;
18695;SDS011;22617;43.690;27.956;2023-07-20T02:30:55;16.95;;;6.70;;
18695;SDS011;22617;43.690;27.956;2023-07-20T02:36:00;10.88;;;6.35;;
18695;SDS011;22617;43.690;27.956;2023-07-20T02:41:03;7.22;;;5.90;;
18695;SDS011;22617;43.690;27.956;2023-07-20T02:46:07;13.82;;;6.75;;
18695;SDS011;22617;43.690;27.956;2023-07-20T02:51:12;12.13;;;6.55;;
18695;SDS011;22617;43.690;27.956;2023-07-20T02:56:16;10.77;;;6.13;;
18695;SDS011;22617;43.690;27.956;2023-07-20T03:01:20;16.17;;;6.40;;
18695;SDS011;22617;43.690;27.956;2023-07-20T03:06:25;13.55;;;5.78;;
18695;SDS011;22617;43.690;27.956;2023-07-20T03:11:29;19.27;;;5.60;;
18695;SDS011;22617;43.690;27.956;2023-07-20T03:16:33;26.92;;;5.95;;
18695;SDS011;22617;43.690;27.956;2023-07-20T03:21:38;15.90;;;5.82;;
18695;SDS011;22617;43.690;27.956;2023-07-20T03:26:43;17.08;;;5.32;;
18695;SDS011;22617;43.690;27.956;2023-07-20T03:31:47;17.70;;;5.70;;
18695;SDS011;22617;43.690;27.956;2023-07-20T03:36:53;13.32;;;5.90;;
18695;SDS011;22617;43.690;27.956;2023-07-20T03:41:57;14.82;;;5.82;;
18695;SDS011;22617;43.690;27.956;2023-07-20T03:47:01;18.10;;;5.60;;
18695;SDS011;22617;43.690;27.956;2023-07-20T03:52:07;19.77;;;6.75;;
18695;SDS011;22617;43.690;27.956;2023-07-20T03:57:11;20.42;;;5.15;;
18695;SDS011;22617;43.690;27.956;2023-07-20T04:02:14;7.32;;;4.63;;
18695;SDS011;22617;43.690;27.956;2023-07-20T04:07:19;14.07;;;5.22;;
18695;SDS011;22617;43.690;27.956;2023-07-20T04:12:23;10.38;;;4.63;;
18695;SDS011;22617;43.690;27.956;2023-07-20T04:17:26;11.10;;;4.68;;
18695;SDS011;22617;43.690;27.956;2023-07-20T04:22:32;8.07;;;4.60;;
18695;SDS011;22617;43.690;27.956;2023-07-20T04:27:36;6.90;;;4.43;;
18695;SDS011;22617;43.690;27.956;2023-07-20T04:32:40;12.77;;;4.82;;
18695;SDS011;22617;43.690;27.956;2023-07-20T04:37:50;17.42;;;4.65;;
18695;SDS011;22617;43.690;27.956;2023-07-20T04:42:56;19.80;;;5.10;;
18695;SDS011;22617;43.690;27.956;2023-07-20T04:48:00;13.52;;;4.30;;
18695;SDS011;22617;43.690;27.956;2023-07-20T04:53:08;27.80;;;5.18;;
18695;SDS011;22617;43.690;27.956;2023-07-20T04:58:13;17.48;;;4.60;;
18695;SDS011;22617;43.690;27.956;2023-07-20T05:03:16;14.07;;;4.13;;
18695;SDS011;22617;43.690;27.956;2023-07-20T05:08:22;13.40;;;4.15;;
18695;SDS011;22617;43.690;27.956;2023-07-20T05:13:25;20.13;;;4.55;;
18695;SDS011;22617;43.690;27.956;2023-07-20T05:18:29;15.95;;;4.55;;
18695;SDS011;22617;43.690;27.956;2023-07-20T05:23:35;16.42;;;4.68;;
18695;SDS011;22617;43.690;27.956;2023-07-20T05:28:39;17.35;;;4.68;;
18695;SDS011;22617;43.690;27.956;2023-07-20T05:33:42;13.52;;;3.83;;
18695;SDS011;22617;43.690;27.956;2023-07-20T05:38:47;17.00;;;4.60;;
18695;SDS011;22617;43.690;27.956;2023-07-20T05:43:51;22.27;;;4.70;;
18695;SDS011;22617;43.690;27.956;2023-07-20T05:48:54;19.02;;;4.55;;
18695;SDS011;22617;43.690;27.956;2023-07-20T05:53:59;13.93;;;4.30;;
18695;SDS011;22617;43.690;27.956;2023-07-20T05:59:03;10.20;;;3.67;;
18695;SDS011;22617;43.690;27.956;2023-07-20T06:04:06;15.23;;;4.47;;
18695;SDS011;22617;43.690;27.956;2023-07-20T06:09:12;12.85;;;4.13;;
18695;SDS011;22617;43.690;27.956;2023-07-20T06:14:16;14.35;;;4.05;;
18695;SDS011;22617;43.690;27.956;2023-07-20T06:19:20;18.13;;;4.18;;
18695;SDS011;22617;43.690;27.956;2023-07-20T06:24:26;12.10;;;3.42;;
18695;SDS011;22617;43.690;27.956;2023-07-20T06:29:29;15.32;;;3.83;;
18695;SDS011;22617;43.690;27.956;2023-07-20T06:34:33;19.58;;;4.65;;
18695;SDS011;22617;43.690;27.956;2023-07-20T06:39:41;11.20;;;4.10;;
18695;SDS011;22617;43.690;27.956;2023-07-20T06:44:47;16.33;;;4.40;;
18695;SDS011;22617;43.690;27.956;2023-07-20T06:49:51;19.00;;;5.57;;
18695;SDS011;22617;43.690;27.956;2023-07-20T06:54:56;16.13;;;4.72;;
18695;SDS011;22617;43.690;27.956;2023-07-20T07:00:06;14.38;;;4.97;;
18695;SDS011;22617;43.690;27.956;2023-07-20T07:05:11;19.85;;;3.85;;
18695;SDS011;22617;43.690;27.956;2023-07-20T07:10:19;19.30;;;4.85;;
18695;SDS011;22617;43.690;27.956;2023-07-20T07:15:23;12.48;;;4.00;;
18695;SDS011;22617;43.690;27.956;2023-07-20T07:20:29;13.30;;;4.50;;
18695;SDS011;22617;43.690;27.956;2023-07-20T07:25:34;8.93;;;3.50;;
18695;SDS011;22617;43.690;27.956;2023-07-20T07:30:37;9.10;;;3.83;;
18695;SDS011;22617;43.690;27.956;2023-07-20T07:35:41;11.88;;;4.28;;
18695;SDS011;22617;43.690;27.956;2023-07-20T07:40:46;18.60;;;4.32;;
18695;SDS011;22617;43.690;27.956;2023-07-20T07:45:50;10.48;;;4.30;;
18695;SDS011;22617;43.690;27.956;2023-07-20T07:50:58;14.52;;;4.13;;
18695;SDS011;22617;43.690;27.956;2023-07-20T07:56:03;8.88;;;3.78;;
18695;SDS011;22617;43.690;27.956;2023-07-20T08:01:07;12.40;;;4.30;;
18695;SDS011;22617;43.690;27.956;2023-07-20T08:06:11;10.02;;;3.85;;
18695;SDS011;22617;43.690;27.956;2023-07-20T08:11:16;13.20;;;4.05;;
18695;SDS011;22617;43.690;27.956;2023-07-20T08:16:20;10.88;;;3.60;;
18695;SDS011;22617;43.690;27.956;2023-07-20T08:21:24;10.07;;;4.63;;
18695;SDS011;22617;43.690;27.956;2023-07-20T08:26:29;12.43;;;4.00;;
18695;SDS011;22617;43.690;27.956;2023-07-20T08:31:33;20.55;;;4.40;;
18695;SDS011;22617;43.690;27.956;2023-07-20T08:36:37;9.52;;;3.25;;
18695;SDS011;22617;43.690;27.956;2023-07-20T08:41:42;14.35;;;3.50;;
18695;SDS011;22617;43.690;27.956;2023-07-20T08:46:46;8.23;;;3.35;;
18695;SDS011;22617;43.690;27.956;2023-07-20T08:51:51;10.68;;;3.42;;
18695;SDS011;22617;43.690;27.956;2023-07-20T08:56:57;11.32;;;3.22;;
18695;SDS011;22617;43.690;27.956;2023-07-20T09:02:01;11.20;;;3.15;;
18695;SDS011;22617;43.690;27.956;2023-07-20T09:07:06;8.98;;;3.00;;
18695;SDS011;22617;43.690;27.956;2023-07-20T09:12:14;10.93;;;3.58;;
18695;SDS011;22617;43.690;27.956;2023-07-20T09:17:18;12.25;;;4.00;;
18695;SDS011;22617;43.690;27.956;2023-07-20T09:22:21;7.10;;;2.50;;
18695;SDS011;22617;43.690;27.956;2023-07-20T09:27:37;6.90;;;2.47;;
18695;SDS011;22617;43.690;27.956;2023-07-20T09:32:42;12.88;;;3.33;;
18695;SDS011;22617;43.690;27.956;2023-07-20T09:37:51;7.10;;;2.40;;
18695;SDS011;22617;43.690;27.956;2023-07-20T09:43:02;6.80;;;2.25;;
18695;SDS011;22617;43.690;27.956;2023-07-20T09:48:10;16.60;;;3.00;;
18695;SDS011;22617;43.690;27.956;2023-07-20T09:53:17;8.25;;;3.13;;
18695;SDS011;22617;43.690;27.956;2023-07-20T09:58:23;27.60;;;4.20;;
18695;SDS011;22617;43.690;27.956;2023-07-20T10:03:29;11.85;;;2.70;;
18695;SDS011;22617;43.690;27.956;2023-07-20T10:08:38;6.05;;;2.28;;
18695;SDS011;22617;43.690;27.956;2023-07-20T10:13:49;12.20;;;3.05;;
18695;SDS011;22617;43.690;27.956;2023-07-20T10:18:55;4.50;;;2.50;;
18695;SDS011;22617;43.690;27.956;2023-07-20T10:24:05;7.68;;;3.40;;
18695;SDS011;22617;43.690;27.956;2023-07-20T10:29:10;23.70;;;3.90;;
18695;SDS011;22617;43.690;27.956;2023-07-20T10:34:16;7.93;;;2.60;;
18695;SDS011;22617;43.690;27.956;2023-07-20T10:39:23;7.28;;;2.70;;
18695;SDS011;22617;43.690;27.956;2023-07-20T10:44:31;7.57;;;2.58;;
18695;SDS011;22617;43.690;27.956;2023-07-20T10:49:35;8.18;;;2.97;;
18695;SDS011;22617;43.690;27.956;2023-07-20T10:55:00;9.13;;;3.03;;
18695;SDS011;22617;43.690;27.956;2023-07-20T11:00:18;12.15;;;2.90;;
18695;SDS011;22617;43.690;27.956;2023-07-20T11:05:34;6.18;;;3.10;;
18695;SDS011;22617;43.690;27.956;2023-07-20T11:10:39;5.97;;;2.30;;
18695;SDS011;22617;43.690;27.956;2023-07-20T11:15:48;5.80;;;2.35;;
18695;SDS011;22617;43.690;27.956;2023-07-20T11:21:04;7.00;;;2.22;;
18695;SDS011;22617;43.690;27.956;2023-07-20T11:26:12;6.57;;;2.95;;
18695;SDS011;22617;43.690;27.956;2023-07-20T11:31:19;7.32;;;2.72;;
18695;SDS011;22617;43.690;27.956;2023-07-20T11:36:23;4.82;;;2.47;;
18695;SDS011;22617;43.690;27.956;2023-07-20T11:41:29;5.32;;;2.80;;
18695;SDS011;22617;43.690;27.956;2023-07-20T11:46:34;7.68;;;2.80;;
18695;SDS011;22617;43.690;27.956;2023-07-20T11:51:38;7.10;;;2.88;;
18695;SDS011;22617;43.690;27.956;2023-07-20T11:56:43;5.82;;;2.47;;
18695;SDS011;22617;43.690;27.956;2023-07-20T12:01:51;4.93;;;2.83;;
18695;SDS011;22617;43.690;27.956;2023-07-20T12:06:55;6.40;;;2.60;;
18695;SDS011;22617;43.690;27.956;2023-07-20T12:12:00;5.63;;;3.13;;
18695;SDS011;22617;43.690;27.956;2023-07-20T12:17:14;6.53;;;3.10;;
18695;SDS011;22617;43.690;27.956;2023-07-20T12:22:18;6.70;;;2.70;;
18695;SDS011;22617;43.690;27.956;2023-07-20T12:27:21;5.78;;;2.88;;
18695;SDS011;22617;43.690;27.956;2023-07-20T12:32:28;4.40;;;2.85;;
18695;SDS011;22617;43.690;27.956;2023-07-20T12:37:31;7.80;;;3.13;;
18695;SDS011;22617;43.690;27.956;2023-07-20T12:42:35;5.70;;;2.80;;
18695;SDS011;22617;43.690;27.956;2023-07-20T12:47:40;7.82;;;3.55;;
18695;SDS011;22617;43.690;27.956;2023-07-20T12:52:45;7.25;;;3.78;;
18695;SDS011;22617;43.690;27.956;2023-07-20T12:57:49;8.05;;;3.63;;
18695;SDS011;22617;43.690;27.956;2023-07-20T13:02:54;9.77;;;4.15;;
18695;SDS011;22617;43.690;27.956;2023-07-20T13:08:00;10.07;;;3.90;;
18695;SDS011;22617;43.690;27.956;2023-07-20T13:13:07;9.60;;;3.58;;
18695;SDS011;22617;43.690;27.956;2023-07-20T13:18:12;7.32;;;3.45;;
18695;SDS011;22617;43.690;27.956;2023-07-20T13:23:15;8.98;;;3.60;;
18695;SDS011;22617;43.690;27.956;2023-07-20T13:28:19;8.27;;;3.85;;
18695;SDS011;22617;43.690;27.956;2023-07-20T13:33:24;9.40;;;3.70;;
18695;SDS011;22617;43.690;27.956;2023-07-20T13:38:29;8.45;;;4.00;;
18695;SDS011;22617;43.690;27.956;2023-07-20T13:43:33;6.70;;;3.58;;
18695;SDS011;22617;43.690;27.956;2023-07-20T13:48:38;7.35;;;4.25;;
18695;SDS011;22617;43.690;27.956;2023-07-20T13:53:42;10.38;;;4.05;;
18695;SDS011;22617;43.690;27.956;2023-07-20T13:58:48;7.90;;;3.55;;
18695;SDS011;22617;43.690;27.956;2023-07-20T14:03:53;8.57;;;3.67;;
18695;SDS011;22617;43.690;27.956;2023-07-20T14:08:58;9.13;;;3.45;;
18695;SDS011;22617;43.690;27.956;2023-07-20T14:14:02;7.25;;;3.28;;
18695;SDS011;22617;43.690;27.956;2023-07-20T14:19:07;9.75;;;3.75;;
18695;SDS011;22617;43.690;27.956;2023-07-20T14:24:11;9.80;;;3.60;;
18695;SDS011;22617;43.690;27.956;2023-07-20T14:29:15;7.22;;;3.40;;
18695;SDS011;22617;43.690;27.956;2023-07-20T14:34:21;5.82;;;3.38;;
18695;SDS011;22617;43.690;27.956;2023-07-20T14:39:24;8.48;;;4.20;;
18695;SDS011;22617;43.690;27.956;2023-07-20T14:44:28;8.50;;;4.15;;
18695;SDS011;22617;43.690;27.956;2023-07-20T14:49:33;6.40;;;3.72;;
18695;SDS011;22617;43.690;27.956;2023-07-20T14:54:37;9.30;;;3.70;;
18695;SDS011;22617;43.690;27.956;2023-07-20T14:59:40;9.55;;;3.60;;
18695;SDS011;22617;43.690;27.956;2023-07-20T15:04:47;8.32;;;4.00;;
18695;SDS011;22617;43.690;27.956;2023-07-20T15:09:53;5.50;;;3.28;;
18695;SDS011;22617;43.690;27.956;2023-07-20T15:15:03;7.78;;;3.60;;
18695;SDS011;22617;43.690;27.956;2023-07-20T15:20:10;8.50;;;4.07;;
18695;SDS011;22617;43.690;27.956;2023-07-20T15:25:15;7.97;;;3.75;;
18695;SDS011;22617;43.690;27.956;2023-07-20T15:30:20;7.43;;;3.78;;
18695;SDS011;22617;43.690;27.956;2023-07-20T15:35:28;14.30;;;4.20;;
18695;SDS011;22617;43.690;27.956;2023-07-20T15:40:32;8.05;;;4.00;;
18695;SDS011;22617;43.690;27.956;2023-07-20T15:45:36;8.82;;;4.13;;
18695;SDS011;22617;43.690;27.956;2023-07-20T15:50:41;7.30;;;3.80;;
18695;SDS011;22617;43.690;27.956;2023-07-20T15:55:48;8.13;;;3.78;;
18695;SDS011;22617;43.690;27.956;2023-07-20T16:00:58;6.50;;;3.50;;
18695;SDS011;22617;43.690;27.956;2023-07-20T16:06:03;8.02;;;3.70;;
18695;SDS011;22617;43.690;27.956;2023-07-20T16:11:08;8.77;;;4.00;;
18695;SDS011;22617;43.690;27.956;2023-07-20T16:16:11;6.75;;;3.85;;
18695;SDS011;22617;43.690;27.956;2023-07-20T16:21:16;7.65;;;4.60;;
18695;SDS011;22617;43.690;27.956;2023-07-20T16:26:20;9.82;;;4.88;;
18695;SDS011;22617;43.690;27.956;2023-07-20T16:31:24;11.13;;;4.70;;
18695;SDS011;22617;43.690;27.956;2023-07-20T16:36:30;10.35;;;5.10;;
18695;SDS011;22617;43.690;27.956;2023-07-20T16:41:39;12.85;;;5.13;;
18695;SDS011;22617;43.690;27.956;2023-07-20T16:46:46;8.00;;;5.00;;
18695;SDS011;22617;43.690;27.956;2023-07-20T16:51:54;9.50;;;4.88;;
18695;SDS011;22617;43.690;27.956;2023-07-20T16:56:58;10.32;;;6.40;;
18695;SDS011;22617;43.690;27.956;2023-07-20T17:02:01;14.98;;;5.20;;
18695;SDS011;22617;43.690;27.956;2023-07-20T17:07:07;13.13;;;5.40;;
18695;SDS011;22617;43.690;27.956;2023-07-20T17:12:14;8.88;;;5.32;;
18695;SDS011;22617;43.690;27.956;2023-07-20T17:17:18;8.68;;;4.88;;
18695;SDS011;22617;43.690;27.956;2023-07-20T17:22:23;11.50;;;6.00;;
18695;SDS011;22617;43.690;27.956;2023-07-20T17:27:27;12.35;;;5.82;;
18695;SDS011;22617;43.690;27.956;2023-07-20T17:32:31;12.18;;;5.88;;
18695;SDS011;22617;43.690;27.956;2023-07-20T17:37:38;11.07;;;5.28;;
18695;SDS011;22617;43.690;27.956;2023-07-20T17:42:46;9.25;;;5.53;;
18695;SDS011;22617;43.690;27.956;2023-07-20T17:47:53;8.73;;;5.97;;
18695;SDS011;22617;43.690;27.956;2023-07-20T17:52:58;11.55;;;5.40;;
18695;SDS011;22617;43.690;27.956;2023-07-20T17:58:02;11.77;;;5.57;;
18695;SDS011;22617;43.690;27.956;2023-07-20T18:03:05;9.88;;;5.25;;
18695;SDS011;22617;43.690;27.956;2023-07-20T18:08:10;9.70;;;5.47;;
18695;SDS011;22617;43.690;27.956;2023-07-20T18:13:14;12.70;;;5.88;;
18695;SDS011;22617;43.690;27.956;2023-07-20T18:18:18;7.85;;;5.70;;
18695;SDS011;22617;43.690;27.956;2023-07-20T18:23:23;10.05;;;6.30;;
18695;SDS011;22617;43.690;27.956;2023-07-20T18:28:26;23.15;;;7.80;;
18695;SDS011;22617;43.690;27.956;2023-07-20T18:33:30;15.32;;;7.32;;
18695;SDS011;22617;43.690;27.956;2023-07-20T18:38:35;16.40;;;7.25;;
18695;SDS011;22617;43.690;27.956;2023-07-20T18:43:38;16.70;;;6.95;;
18695;SDS011;22617;43.690;27.956;2023-07-20T18:48:42;21.58;;;7.53;;
18695;SDS011;22617;43.690;27.956;2023-07-20T18:53:48;15.93;;;7.15;;
18695;SDS011;22617;43.690;27.956;2023-07-20T18:58:51;13.95;;;7.07;;
18695;SDS011;22617;43.690;27.956;2023-07-20T19:03:54;15.27;;;7.40;;
18695;SDS011;22617;43.690;27.956;2023-07-20T19:09:00;16.20;;;7.78;;
18695;SDS011;22617;43.690;27.956;2023-07-20T19:14:03;16.55;;;7.55;;
18695;SDS011;22617;43.690;27.956;2023-07-20T19:19:07;12.68;;;6.70;;
18695;SDS011;22617;43.690;27.956;2023-07-20T19:24:12;15.73;;;7.25;;
18695;SDS011;22617;43.690;27.956;2023-07-20T19:29:22;11.27;;;6.97;;
18695;SDS011;22617;43.690;27.956;2023-07-20T19:34:25;15.77;;;7.85;;
18695;SDS011;22617;43.690;27.956;2023-07-20T19:39:36;13.80;;;7.53;;
18695;SDS011;22617;43.690;27.956;2023-07-20T19:44:40;10.85;;;6.65;;
18695;SDS011;22617;43.690;27.956;2023-07-20T19:49:46;11.02;;;6.25;;
18695;SDS011;22617;43.690;27.956;2023-07-20T19:54:52;11.13;;;6.20;;
18695;SDS011;22617;43.690;27.956;2023-07-20T19:59:56;13.30;;;6.60;;
18695;SDS011;22617;43.690;27.956;2023-07-20T20:05:00;12.82;;;6.80;;
18695;SDS011;22617;43.690;27.956;2023-07-20T20:10:05;11.50;;;7.22;;
18695;SDS011;22617;43.690;27.956;2023-07-20T20:15:10;9.80;;;6.80;;
18695;SDS011;22617;43.690;27.956;2023-07-20T20:20:14;11.60;;;6.32;;
18695;SDS011;22617;43.690;27.956;2023-07-20T20:25:19;9.68;;;6.47;;
18695;SDS011;22617;43.690;27.956;2023-07-20T20:30:23;13.90;;;7.05;;
18695;SDS011;22617;43.690;27.956;2023-07-20T20:35:27;10.57;;;6.78;;
18695;SDS011;22617;43.690;27.956;2023-07-20T20:45:36;11.60;;;7.38;;
18695;SDS011;22617;43.690;27.956;2023-07-20T20:50:40;11.77;;;7.38;;
18695;SDS011;22617;43.690;27.956;2023-07-20T20:55:47;12.00;;;7.35;;
18695;SDS011;22617;43.690;27.956;2023-07-20T21:00:50;14.18;;;7.60;;
18695;SDS011;22617;43.690;27.956;2023-07-20T21:05:54;14.88;;;8.55;;
18695;SDS011;22617;43.690;27.956;2023-07-20T21:11:00;10.57;;;6.93;;
18695;SDS011;22617;43.690;27.956;2023-07-20T21:16:03;15.80;;;8.02;;
18695;SDS011;22617;43.690;27.956;2023-07-20T21:21:07;16.02;;;8.50;;
18695;SDS011;22617;43.690;27.956;2023-07-20T21:26:12;13.45;;;7.88;;
18695;SDS011;22617;43.690;27.956;2023-07-20T21:31:16;12.90;;;8.00;;
18695;SDS011;22617;43.690;27.956;2023-07-20T21:36:20;13.00;;;8.38;;
18695;SDS011;22617;43.690;27.956;2023-07-20T21:41:26;12.55;;;8.85;;
18695;SDS011;22617;43.690;27.956;2023-07-20T21:46:30;13.80;;;8.52;;
18695;SDS011;22617;43.690;27.956;2023-07-20T21:51:35;13.05;;;7.93;;
18695;SDS011;22617;43.690;27.956;2023-07-20T21:56:40;27.58;;;10.10;;
18695;SDS011;22617;43.690;27.956;2023-07-20T22:01:43;22.45;;;10.30;;
18695;SDS011;22617;43.690;27.956;2023-07-20T22:06:50;31.98;;;11.32;;
18695;SDS011;22617;43.690;27.956;2023-07-20T22:11:55;18.92;;;9.52;;
18695;SDS011;22617;43.690;27.956;2023-07-20T22:16:59;16.25;;;10.38;;
18695;SDS011;22617;43.690;27.956;2023-07-20T22:22:03;17.88;;;10.20;;
18695;SDS011;22617;43.690;27.956;2023-07-20T22:27:09;14.98;;;9.70;;
18695;SDS011;22617;43.690;27.956;2023-07-20T22:32:12;16.48;;;9.32;;
18695;SDS011;22617;43.690;27.956;2023-07-20T22:37:16;15.02;;;9.07;;
18695;SDS011;22617;43.690;27.956;2023-07-20T22:42:21;14.30;;;9.10;;
18695;SDS011;22617;43.690;27.956;2023-07-20T22:47:24;14.43;;;10.07;;
18695;SDS011;22617;43.690;27.956;2023-07-20T22:52:28;16.70;;;10.98;;
18695;SDS011;22617;43.690;27.956;2023-07-20T22:57:35;14.68;;;9.98;;
18695;SDS011;22617;43.690;27.956;2023-07-20T23:02:39;18.00;;;10.35;;
18695;SDS011;22617;43.690;27.956;2023-07-20T23:07:44;18.52;;;9.68;;
18695;SDS011;22617;43.690;27.956;2023-07-20T23:12:49;12.75;;;8.82;;
18695;SDS011;22617;43.690;27.956;2023-07-20T23:17:53;14.65;;;9.32;;
18695;SDS011;22617;43.690;27.956;2023-07-20T23:22:57;13.48;;;7.93;;
18695;SDS011;22617;43.690;27.956;2023-07-20T23:28:02;13.65;;;8.43;;
18695;SDS011;22617;43.690;27.956;2023-07-20T23:33:06;11.50;;;7.50;;
18695;SDS011;22617;43.690;27.956;2023-07-20T23:38:09;10.38;;;7.90;;
18695;SDS011;22617;43.690;27.956;2023-07-20T23:43:15;13.00;;;7.65;;
18695;SDS011;22617;43.690;27.956;2023-07-20T23:48:18;12.27;;;6.97;;
18695;SDS011;22617;43.690;27.956;2023-07-20T23:53:22;10.90;;;6.65;;
18695;SDS011;22617;43.690;27.956;2023-07-20T23:58:28;10.00;;;7.20;;
